UWOOUSCC

Guest
Details From UWOO - Orenburg
To USCC - Balandino
Flight Number -
Tags Generated
Created
Modified
Stats Distance 302 nm / 559 km
Max Altitude 0 ft / 0 m
Waypoints 3
Social Downloads 0
Likes 0
Share VATSIM

Download

Looking for another format? Having issues loading an existing format? Contact us
Advertisement - Login to hide

Notes

Generated

Route

UWOO IDETA USCC

ID Type Via Altitude Latitude Longitude Leg Dist Tot Dist Heading (true) Name
O UWOO APT - 0 ft / 0 m 51.79576˚ 55.43859˚ - 0 nm - -
IDETA FIX - 0 ft / 0 m 55.05000˚ 61.10000˚ 281 nm 281 nm 44° / 48° -
O USCC APT - 0 ft / 0 m 55.30921˚ 61.47889˚ 20 nm 301 nm 40° / 40° -

Altitude Profile

Advertisement - Login to hide

Weather


0- 5 10 15 20 25 30 35+ Temperature / ° C

Clouds and Precipitation
Forecast for 2018-05-22 00:00 UTC. Updated 2 hours ago

Ground ~20,000 ft ~40,000 ft Winds

UWOO

Details ICAO UWOO (REN)
Name ORENBURG
Region Russia
Timezone Asia/Yekaterinburg (UTC+5.0)
Stats Elevation 387 ft / 118 m (AMSL)
Location 51.795788° 55.456745°
Runways 1
Magnetic Variation 11.511° E

METAR

UWOO 220100Z 01005MPS CAVOK 08/05 Q1025 R08/65D NOSIG RMK QFE758/1011

Decode

TAF

TAF UWOO 212253Z 2200/2224 03006G11MPS 9999 BKN015 SCT020CB TX24/2215Z TN10/2202Z TEMPO 2200/2212 04008G13MPS -SHRA BKN011 BKN015CB BECMG 2216/2217 02003G08MPS

Decode

Departure Runways

ID Width Length Bearing (true) Bearing (mag) Surface Threshold Offset Overrun Length
08 138 ft / 42 m 8,193 ft / 2,497 m 89.87° 78.36° Concrete 0 ft / 0 m 0 ft / 0 m
26 138 ft / 42 m 8,193 ft / 2,497 m 269.89° 258.38° Concrete 0 ft / 0 m 0 ft / 0 m

USCC

Details ICAO USCC (CEK)
Name BALANDINO
Region Russia
Timezone Asia/Yekaterinburg (UTC+5.0)
Stats Elevation 769 ft / 234 m (AMSL)
Location 55.305843° 61.503320°
Runways 1
Magnetic Variation 13.827° E

METAR

USCC 220100Z 29004MPS CAVOK 06/03 Q1022 R27/000060 NOSIG RMK QFE746

Decode

TAF

TAF TAF USCC 212300Z 2200/2224 28007MPS 9999 SCT030CB TEMPO 2200/2203 30003MPS 3100 BR TEMPO 2203/2215 26015MPS

Decode

Destination Runways

ID Width Length Bearing (true) Bearing (mag) Surface Threshold Offset Overrun Length
09 197 ft / 60 m 10,443 ft / 3,183 m 103.59° 89.76° Concrete 0 ft / 0 m 230 ft / 70 m
27 197 ft / 60 m 10,443 ft / 3,183 m 283.63° 269.80° Concrete 0 ft / 0 m 230 ft / 70 m

Approach Navaids

Runway Type Ident Frequency Range Bearing (true) Bearing (mag) Slope Elevation
09 Localiser ILB 109.90 MHz 18 nm / 33 km 105.25° 91.42° - 769 ft / 234 m (AMSL)
09 Glidescope ILB 109.90 MHz 10 nm / 19 km 103.61° 89.79° 2.80° 769 ft / 234 m (AMSL)
27 Localiser IKS 108.70 MHz 18 nm / 33 km 282.19° 268.36° - 769 ft / 234 m (AMSL)
27 Glidescope IKS 108.70 MHz 10 nm / 19 km 283.61° 269.79° 2.80° 769 ft / 234 m (AMSL)

Popular Alternatives